Time;durP1;ratioP1;P1;durP2;ratioP2;P2;SDS_P1;SDS_P2;PMS_P1;PMS_P2;Temp;Humidity;BMP_temperature;BMP_pressure;BME280_temperature;BME280_humidity;BME280_pressure;Samples;Min_cycle;Max_cycle;Signal;HPM_P1;HPM_P2
2023/01/01 00:01:27;;;;;;;70.43;36.37;;;14.50;99.90;;;;;;5261818;28;20296;-52
2023/01/01 00:03:58;;;;;;;50.33;25.33;;;14.60;99.90;;;;;;5263303;28;20423;-52
2023/01/01 00:06:29;;;;;;;45.27;26.40;;;14.40;99.90;;;;;;5258267;28;20524;-52
2023/01/01 00:11:49;;;;;;;39.20;19.53;;;14.60;99.90;;;;;;5251215;28;20183;-52
2023/01/01 00:14:20;;;;;;;32.07;19.17;;;14.60;99.90;;;;;;5260154;28;20923;-52
2023/01/01 00:16:54;;;;;;;28.57;18.00;;;14.60;99.90;;;;;;5257011;28;20686;-51
2023/01/01 00:19:24;;;;;;;34.60;19.43;;;14.70;99.90;;;;;;5259331;28;20194;-52
2023/01/01 00:21:55;;;;;;;24.07;15.40;;;14.60;99.90;;;;;;5262163;28;20518;-52
2023/01/01 00:24:25;;;;;;;64.07;31.63;;;14.50;99.90;;;;;;5270311;28;20549;-52
2023/01/01 00:26:56;;;;;;;98.97;58.17;;;14.60;99.90;;;;;;5264203;28;20177;-52
2023/01/01 00:29:27;;;;;;;193.00;95.20;;;14.50;99.90;;;;;;5261769;28;20212;-53
2023/01/01 00:31:58;;;;;;;56.10;27.97;;;14.50;99.90;;;;;;5267750;28;20416;-52
2023/01/01 00:34:28;;;;;;;35.90;15.17;;;14.50;99.90;;;;;;5264021;28;20190;-51
2023/01/01 00:36:59;;;;;;;39.57;14.03;;;14.50;99.90;;;;;;5251422;28;20567;-52
2023/01/01 00:39:30;;;;;;;21.27;9.83;;;14.50;99.90;;;;;;5250284;28;20238;-51
2023/01/01 00:42:00;;;;;;;29.80;11.77;;;14.60;99.90;;;;;;5264970;28;20190;-51
2023/01/01 00:44:31;;;;;;;23.53;10.70;;;14.70;99.90;;;;;;5266017;28;20174;-51
2023/01/01 00:47:02;;;;;;;28.73;10.07;;;14.70;99.90;;;;;;5251404;28;20216;-52
2023/01/01 00:49:32;;;;;;;16.73;9.33;;;14.60;99.90;;;;;;5255671;28;20177;-52
2023/01/01 00:52:03;;;;;;;20.47;9.77;;;14.60;99.90;;;;;;5244048;28;20634;-51
2023/01/01 00:54:34;;;;;;;17.30;8.47;;;14.50;99.90;;;;;;5257079;28;20193;-52
2023/01/01 00:57:04;;;;;;;17.30;7.10;;;14.50;99.90;;;;;;5261777;28;20205;-51
2023/01/01 00:59:35;;;;;;;11.27;5.97;;;14.40;99.90;;;;;;5260698;28;20197;-52
2023/01/01 01:02:06;;;;;;;19.20;6.43;;;14.50;99.90;;;;;;5257793;28;20205;-52
2023/01/01 01:04:36;;;;;;;7.10;5.53;;;14.50;99.90;;;;;;5263750;28;20229;-50
2023/01/01 01:07:07;;;;;;;7.13;5.50;;;14.50;99.90;;;;;;5242001;28;20243;-52
2023/01/01 01:09:37;;;;;;;20.37;6.20;;;14.50;99.90;;;;;;5256028;28;20196;-52
2023/01/01 01:12:08;;;;;;;17.83;7.50;;;14.50;99.90;;;;;;5262356;28;20183;-51
2023/01/01 01:14:39;;;;;;;18.97;7.20;;;14.60;99.90;;;;;;5262868;28;20177;-52
2023/01/01 01:17:09;;;;;;;10.63;6.37;;;14.60;99.90;;;;;;5263981;28;20558;-52
2023/01/01 01:19:40;;;;;;;9.37;6.93;;;14.50;99.90;;;;;;5261894;28;20219;-51
2023/01/01 01:22:11;;;;;;;9.20;6.37;;;14.50;99.90;;;;;;5264909;28;20178;-51
2023/01/01 01:24:41;;;;;;;12.57;5.97;;;14.40;99.90;;;;;;5260586;28;20188;-51
2023/01/01 01:27:12;;;;;;;6.63;5.00;;;14.40;99.90;;;;;;5260756;28;20669;-50
2023/01/01 01:29:43;;;;;;;14.57;5.63;;;14.40;99.90;;;;;;5258791;28;20733;-51
2023/01/01 01:32:13;;;;;;;13.30;5.30;;;14.50;99.90;;;;;;5256419;28;20584;-52
2023/01/01 01:34:44;;;;;;;4.77;4.30;;;14.40;99.90;;;;;;5271527;28;20236;-52
2023/01/01 01:37:15;;;;;;;4.17;3.73;;;14.40;99.90;;;;;;5248664;28;20202;-51
2023/01/01 01:39:45;;;;;;;12.67;5.27;;;14.40;99.90;;;;;;5260454;28;20592;-52
2023/01/01 01:42:17;;;;;;;11.67;7.83;;;14.40;99.90;;;;;;5254719;28;20186;-50
2023/01/01 01:44:59;;;;;;;23.43;10.70;;;14.50;99.90;;;;;;5266485;28;20549;-51
2023/01/01 01:47:46;;;;;;;19.70;8.50;;;14.40;99.90;;;;;;5265771;28;20860;-53
2023/01/01 01:50:39;;;;;;;12.53;5.97;;;14.40;99.90;;;;;;5260320;28;20529;-51
2023/01/01 01:53:12;;;;;;;6.17;4.50;;;14.30;99.90;;;;;;5259986;28;20443;-51
2023/01/01 01:55:49;;;;;;;11.57;5.83;;;14.30;99.90;;;;;;5257804;28;20516;-51
2023/01/01 01:58:20;;;;;;;16.87;6.57;;;14.30;99.90;;;;;;5263274;28;20543;-48
2023/01/01 02:00:52;;;;;;;15.70;8.77;;;14.30;99.90;;;;;;5255754;28;20510;-52
2023/01/01 02:03:38;;;;;;;11.80;7.17;;;14.50;99.90;;;;;;5262666;28;20432;-50
2023/01/01 02:06:10;;;;;;;7.63;4.80;;;14.40;99.90;;;;;;5249059;28;20451;-49
2023/01/01 02:08:40;;;;;;;7.60;5.60;;;14.60;99.90;;;;;;5264164;28;20452;-50
2023/01/01 02:11:11;;;;;;;12.27;5.50;;;14.50;99.90;;;;;;5254048;28;20526;-48
2023/01/01 02:13:42;;;;;;;14.40;5.90;;;14.60;99.90;;;;;;5257836;28;20218;-47
2023/01/01 02:16:28;;;;;;;12.33;5.70;;;14.60;99.90;;;;;;5256886;28;20209;-53
2023/01/01 02:19:04;;;;;;;7.10;5.40;;;14.60;99.90;;;;;;5260413;28;20189;-50
2023/01/01 02:21:59;;;;;;;12.90;6.60;;;14.60;99.90;;;;;;5253753;28;20854;-50
2023/01/01 02:24:54;;;;;;;17.60;8.83;;;14.70;99.90;;;;;;5264341;28;20419;-51
2023/01/01 02:27:45;;;;;;;14.03;8.30;;;14.80;99.90;;;;;;5260889;28;20476;-48
2023/01/01 02:30:16;;;;;;;16.90;10.03;;;14.80;99.90;;;;;;5266664;28;20462;-49
2023/01/01 02:32:56;;;;;;;10.40;6.17;;;14.80;99.90;;;;;;5261723;28;20553;-48
2023/01/01 02:35:34;;;;;;;7.23;5.00;;;14.70;99.90;;;;;;5250129;28;20405;-49
2023/01/01 02:38:20;;;;;;;11.00;4.40;;;14.70;99.90;;;;;;5266248;28;20555;-47
2023/01/01 02:41:01;;;;;;;9.93;4.60;;;14.60;99.90;;;;;;5258608;28;20544;-49
2023/01/01 02:43:32;;;;;;;10.40;4.30;;;14.50;99.90;;;;;;5270743;28;20524;-50
2023/01/01 02:46:07;;;;;;;6.27;4.43;;;14.50;99.90;;;;;;5259848;28;20865;-48
2023/01/01 02:48:43;;;;;;;5.93;5.00;;;14.50;99.90;;;;;;5260346;28;20204;-49
2023/01/01 02:51:24;;;;;;;11.87;5.40;;;14.50;99.90;;;;;;5262847;28;20431;-49
2023/01/01 02:54:00;;;;;;;9.43;4.87;;;14.50;99.90;;;;;;5260879;28;20429;-49
2023/01/01 02:56:44;;;;;;;10.20;4.33;;;14.40;99.90;;;;;;5256111;28;20782;-49
2023/01/01 03:02:49;;;;;;;8.87;5.10;;;14.40;99.90;;;;;;5258529;28;20511;-52
2023/01/01 03:06:21;;;;;;;5.77;4.80;;;14.40;99.90;;;;;;5207917;28;20437;-49
2023/01/01 03:08:50;;;;;;;15.53;5.27;;;14.30;99.90;;;;;;5220758;28;20454;-51
2023/01/01 03:11:24;;;;;;;18.70;6.20;;;14.30;99.90;;;;;;5256886;28;20493;-48
2023/01/01 03:14:04;;;;;;;6.67;5.20;;;14.40;99.90;;;;;;5258524;28;20423;-50
2023/01/01 03:16:46;;;;;;;5.67;4.90;;;14.40;99.90;;;;;;5279794;28;20446;-49
2023/01/01 03:19:21;;;;;;;8.23;4.60;;;14.30;99.90;;;;;;5260317;28;20479;-48
2023/01/01 03:22:02;;;;;;;13.70;4.80;;;14.30;99.90;;;;;;5261314;28;21096;-50
2023/01/01 03:24:55;;;;;;;10.13;5.10;;;14.20;99.90;;;;;;5264131;28;20420;-49
2023/01/01 03:27:51;;;;;;;9.47;4.27;;;14.10;99.90;;;;;;5258052;28;20447;-50
2023/01/01 03:30:23;;;;;;;9.70;4.10;;;14.20;99.90;;;;;;5261382;28;20440;-49
2023/01/01 03:33:03;;;;;;;8.63;3.90;;;14.20;99.90;;;;;;5263989;28;20438;-53
2023/01/01 03:35:46;;;;;;;10.17;4.37;;;14.20;99.90;;;;;;5254967;28;20425;-48
2023/01/01 03:38:45;;;;;;;7.07;4.40;;;14.20;99.90;;;;;;5265458;28;20957;-47
2023/01/01 03:41:21;;;;;;;13.83;4.70;;;14.30;99.90;;;;;;5262797;28;20481;-48
2023/01/01 03:44:00;;;;;;;7.43;4.80;;;14.30;99.90;;;;;;5262766;28;20431;-49
2023/01/01 03:46:34;;;;;;;10.00;4.27;;;14.40;99.90;;;;;;5262280;28;20444;-50
2023/01/01 03:49:09;;;;;;;10.40;7.03;;;14.30;99.90;;;;;;5264083;28;20542;-48
2023/01/01 03:51:42;;;;;;;8.40;6.17;;;14.30;99.90;;;;;;5263718;28;21026;-48
2023/01/01 03:54:25;;;;;;;9.23;4.37;;;14.20;99.90;;;;;;5270301;28;20489;-50
2023/01/01 03:57:20;;;;;;;15.47;6.67;;;14.20;99.90;;;;;;5261677;28;20467;-49
2023/01/01 04:00:15;;;;;;;8.17;4.50;;;14.10;99.90;;;;;;5266122;28;20523;-48
2023/01/01 04:03:05;;;;;;;7.10;3.87;;;14.10;99.90;;;;;;5265537;28;20435;-50
2023/01/01 04:05:40;;;;;;;6.33;4.00;;;14.00;99.90;;;;;;5263881;28;20431;-49
2023/01/01 04:08:13;;;;;;;10.33;3.87;;;14.00;99.90;;;;;;5269610;28;20453;-49
2023/01/01 04:12:00;;;;;;;5.67;3.70;;;13.90;99.90;;;;;;5257313;28;20431;-54
2023/01/01 04:13:57;;;;;;;5.23;4.27;;;13.80;99.90;;;;;;5267524;28;20462;-49
2023/01/01 04:16:28;;;;;;;11.97;4.70;;;13.80;99.90;;;;;;5269518;28;20455;-48
2023/01/01 04:18:58;;;;;;;6.03;5.17;;;13.70;99.90;;;;;;5262060;28;20207;-49
2023/01/01 04:21:29;;;;;;;11.70;3.83;;;13.90;99.90;;;;;;5266617;28;20206;-49
2023/01/01 04:23:59;;;;;;;12.53;3.80;;;14.00;99.90;;;;;;5267727;28;20178;-48
2023/01/01 04:26:30;;;;;;;10.40;4.17;;;14.00;99.90;;;;;;5265150;28;20269;-49
2023/01/01 04:29:01;;;;;;;4.03;3.67;;;14.10;99.90;;;;;;5266793;28;20202;-48
2023/01/01 04:31:33;;;;;;;5.43;3.70;;;14.10;99.90;;;;;;5259381;28;20281;-48
2023/01/01 04:34:04;;;;;;;8.00;4.30;;;14.00;99.90;;;;;;5266397;28;20178;-48
2023/01/01 04:36:34;;;;;;;6.93;4.30;;;14.00;99.90;;;;;;5263400;28;20516;-48
2023/01/01 04:39:06;;;;;;;6.30;3.77;;;13.90;99.90;;;;;;5269527;28;20483;-51
2023/01/01 04:41:36;;;;;;;8.90;4.77;;;13.80;99.90;;;;;;5264092;28;20199;-49
2023/01/01 04:44:07;;;;;;;4.87;3.80;;;13.80;99.90;;;;;;5267984;28;20442;-52
2023/01/01 04:46:38;;;;;;;10.27;4.93;;;13.70;99.90;;;;;;5263208;28;20216;-49
2023/01/01 04:49:08;;;;;;;12.00;7.83;;;13.70;99.90;;;;;;5261875;28;20198;-52
2023/01/01 04:51:39;;;;;;;15.13;8.43;;;13.70;99.90;;;;;;5268009;28;20178;-49
2023/01/01 04:54:10;;;;;;;14.10;5.30;;;13.70;99.90;;;;;;5263094;28;20197;-52
2023/01/01 04:56:40;;;;;;;7.83;4.90;;;13.60;99.90;;;;;;5267447;28;20205;-51
2023/01/01 04:59:11;;;;;;;8.50;3.83;;;13.70;99.90;;;;;;5267126;28;20288;-49
2023/01/01 05:01:42;;;;;;;7.23;4.60;;;13.80;99.90;;;;;;5260626;28;20269;-51
2023/01/01 05:04:13;;;;;;;8.27;3.93;;;13.90;99.90;;;;;;5261557;28;20179;-48
2023/01/01 05:06:44;;;;;;;4.73;3.47;;;13.90;99.90;;;;;;5259743;28;20535;-50
2023/01/01 05:09:15;;;;;;;4.80;3.73;;;13.80;99.90;;;;;;5264079;28;20465;-50
2023/01/01 05:11:45;;;;;;;4.63;3.20;;;13.80;99.90;;;;;;5254267;28;20281;-49
2023/01/01 05:14:16;;;;;;;5.53;3.70;;;13.80;99.90;;;;;;5262581;28;20205;-48
2023/01/01 05:16:47;;;;;;;5.97;2.90;;;13.90;99.90;;;;;;5256810;28;20205;-49
2023/01/01 05:19:17;;;;;;;4.67;3.70;;;13.80;99.90;;;;;;5264958;28;20212;-49
2023/01/01 05:21:48;;;;;;;8.07;3.70;;;13.80;99.90;;;;;;5261341;28;20170;-50
2023/01/01 05:24:19;;;;;;;4.73;3.60;;;13.80;99.90;;;;;;5257199;28;20177;-53
2023/01/01 05:26:49;;;;;;;6.30;3.60;;;13.90;99.90;;;;;;5263028;28;20223;-49
2023/01/01 05:29:23;;;;;;;4.30;3.50;;;13.80;99.90;;;;;;5255956;28;20205;-48
2023/01/01 05:31:53;;;;;;;7.70;3.17;;;13.80;99.90;;;;;;5260173;28;20577;-47
2023/01/01 05:34:24;;;;;;;7.43;3.10;;;13.80;99.90;;;;;;5257897;28;20440;-49
2023/01/01 05:36:55;;;;;;;7.77;3.87;;;13.90;99.90;;;;;;5265270;28;20198;-50
2023/01/01 05:39:25;;;;;;;10.00;3.97;;;13.90;99.90;;;;;;5256783;28;20485;-53
2023/01/01 05:41:56;;;;;;;3.57;2.60;;;13.90;99.90;;;;;;5262971;28;20174;-48
2023/01/01 05:44:27;;;;;;;5.17;3.50;;;13.90;99.90;;;;;;5256410;28;20209;-51
2023/01/01 05:46:57;;;;;;;5.63;2.83;;;13.90;99.90;;;;;;5268250;28;20186;-49
2023/01/01 05:49:28;;;;;;;6.60;2.90;;;13.90;99.90;;;;;;5269636;28;20273;-48
2023/01/01 05:51:58;;;;;;;6.57;2.50;;;13.90;99.90;;;;;;5268486;28;20189;-50
2023/01/01 05:54:29;;;;;;;13.43;2.40;;;13.90;99.90;;;;;;5259609;28;20297;-49
2023/01/01 05:57:00;;;;;;;9.23;2.87;;;13.90;99.90;;;;;;5261449;28;20206;-50
2023/01/01 05:59:30;;;;;;;5.00;3.27;;;13.90;99.90;;;;;;5256685;28;20210;-50
2023/01/01 06:02:01;;;;;;;9.80;2.87;;;13.90;99.90;;;;;;5253962;28;20185;-50
2023/01/01 06:04:31;;;;;;;4.13;2.60;;;13.90;99.90;;;;;;5262389;28;20200;-48
2023/01/01 06:07:02;;;;;;;9.10;2.20;;;13.90;99.90;;;;;;5263498;28;20177;-48
2023/01/01 06:09:33;;;;;;;6.30;2.13;;;13.90;99.90;;;;;;5265242;28;20197;-49
2023/01/01 06:12:04;;;;;;;4.13;3.03;;;13.90;99.90;;;;;;5259233;28;20682;-50
2023/01/01 06:14:34;;;;;;;7.30;2.77;;;13.90;99.90;;;;;;5254658;28;20212;-48
2023/01/01 06:17:05;;;;;;;4.03;2.63;;;13.90;99.90;;;;;;5263806;28;20210;-50
2023/01/01 06:19:35;;;;;;;3.37;2.20;;;13.90;99.90;;;;;;5259919;28;20205;-47
2023/01/01 06:22:06;;;;;;;4.73;2.80;;;13.80;99.90;;;;;;5264270;28;20193;-47
2023/01/01 06:24:37;;;;;;;2.77;2.67;;;13.80;99.90;;;;;;5266023;28;20181;-47
2023/01/01 06:27:07;;;;;;;10.87;2.90;;;13.90;99.90;;;;;;5263899;28;20186;-49
2023/01/01 06:29:38;;;;;;;3.23;2.50;;;13.80;99.90;;;;;;5261490;28;20208;-47
2023/01/01 06:32:09;;;;;;;2.93;2.10;;;13.80;99.90;;;;;;5265207;28;20189;-49
2023/01/01 06:34:39;;;;;;;4.20;1.97;;;13.80;99.90;;;;;;5263110;28;20198;-49
2023/01/01 06:37:10;;;;;;;6.67;2.70;;;13.80;99.90;;;;;;5265319;28;20214;-49
2023/01/01 06:39:41;;;;;;;2.53;2.17;;;13.90;99.90;;;;;;5266718;28;20661;-49
2023/01/01 06:42:11;;;;;;;4.67;2.20;;;13.80;99.90;;;;;;5276311;28;20705;-49
2023/01/01 06:44:42;;;;;;;2.40;2.20;;;13.90;99.90;;;;;;5260069;28;20243;-49
2023/01/01 06:47:13;;;;;;;4.23;2.80;;;13.80;99.90;;;;;;5253482;28;20185;-50
2023/01/01 06:49:43;;;;;;;3.53;3.20;;;13.90;99.90;;;;;;5261720;28;20177;-48
2023/01/01 06:52:14;;;;;;;9.10;2.30;;;13.90;99.90;;;;;;5260878;28;21432;-50
2023/01/01 06:54:45;;;;;;;4.53;2.70;;;13.90;99.90;;;;;;5267710;28;20182;-49
2023/01/01 06:57:15;;;;;;;3.70;2.37;;;13.80;99.90;;;;;;5267626;28;20262;-48
2023/01/01 06:59:46;;;;;;;5.83;3.20;;;13.90;99.90;;;;;;5247669;28;20232;-49
2023/01/01 07:02:16;;;;;;;5.30;2.83;;;13.80;99.90;;;;;;5261798;28;20546;-48
2023/01/01 07:04:47;;;;;;;4.50;2.70;;;13.80;99.90;;;;;;5258120;28;20170;-50
2023/01/01 07:07:18;;;;;;;3.07;2.60;;;13.90;99.90;;;;;;5259524;28;20204;-49
2023/01/01 07:09:48;;;;;;;5.80;2.50;;;13.80;99.90;;;;;;5261297;28;20185;-50
2023/01/01 07:12:19;;;;;;;9.60;4.43;;;13.80;99.90;;;;;;5262946;28;20228;-48
2023/01/01 07:14:50;;;;;;;3.70;2.93;;;13.80;99.90;;;;;;5259956;28;20278;-49
2023/01/01 07:17:20;;;;;;;6.13;2.23;;;13.80;99.90;;;;;;5261885;28;20209;-49
2023/01/01 07:19:51;;;;;;;3.43;2.87;;;13.80;99.90;;;;;;5256087;28;20608;-49
2023/01/01 07:22:22;;;;;;;3.20;2.90;;;13.80;99.90;;;;;;5255378;28;20189;-49
2023/01/01 07:24:52;;;;;;;3.73;2.53;;;13.90;99.90;;;;;;5264643;28;22194;-51
2023/01/01 07:27:23;;;;;;;3.63;2.30;;;14.00;99.90;;;;;;5265762;28;20300;-49
2023/01/01 07:29:54;;;;;;;6.83;2.97;;;14.00;99.90;;;;;;5263158;28;20185;-48
2023/01/01 07:32:24;;;;;;;6.43;2.57;;;14.00;99.90;;;;;;5266258;28;20268;-49
2023/01/01 07:34:55;;;;;;;5.80;3.23;;;14.10;99.90;;;;;;5268680;28;20235;-48
2023/01/01 07:37:26;;;;;;;6.70;3.23;;;14.10;99.90;;;;;;5270007;28;20263;-47
2023/01/01 07:39:57;;;;;;;5.17;2.87;;;14.10;99.90;;;;;;5264313;28;20172;-49
2023/01/01 07:42:27;;;;;;;5.60;2.50;;;14.20;99.90;;;;;;5248699;28;20261;-48
2023/01/01 07:44:58;;;;;;;12.70;3.77;;;14.20;99.90;;;;;;5265724;28;20173;-49
2023/01/01 07:47:29;;;;;;;8.90;3.60;;;14.20;99.90;;;;;;5269832;28;20262;-52
2023/01/01 07:49:59;;;;;;;5.03;2.60;;;14.20;99.90;;;;;;5269301;28;20181;-50
2023/01/01 07:52:30;;;;;;;9.10;3.70;;;14.20;99.90;;;;;;5265217;28;20292;-51
2023/01/01 07:55:01;;;;;;;4.43;3.20;;;14.20;99.90;;;;;;5266989;28;20186;-50
2023/01/01 07:57:31;;;;;;;5.77;3.20;;;14.20;99.90;;;;;;5270629;28;20217;-47
2023/01/01 08:00:02;;;;;;;12.70;3.50;;;14.20;99.90;;;;;;5261383;28;20189;-49
2023/01/01 08:02:33;;;;;;;4.77;2.57;;;14.20;99.90;;;;;;5265210;28;20181;-48
2023/01/01 08:05:04;;;;;;;3.50;3.20;;;14.30;99.90;;;;;;5247486;28;20440;-49
2023/01/01 08:07:35;;;;;;;3.93;3.50;;;14.30;99.90;;;;;;5263676;28;20248;-50
2023/01/01 08:10:06;;;;;;;4.50;3.10;;;14.30;99.90;;;;;;5262804;28;20435;-49
2023/01/01 08:12:37;;;;;;;5.63;3.50;;;14.30;99.90;;;;;;5266715;28;20181;-48
2023/01/01 08:15:09;;;;;;;4.73;2.90;;;14.40;99.90;;;;;;5267446;28;20442;-49
2023/01/01 08:17:40;;;;;;;6.03;3.40;;;14.40;99.90;;;;;;5270120;28;20374;-48
2023/01/01 08:20:10;;;;;;;6.27;3.13;;;14.40;99.90;;;;;;5263195;28;20528;-48
2023/01/01 08:22:41;;;;;;;3.60;3.30;;;14.40;99.90;;;;;;5274620;28;20226;-52
2023/01/01 08:25:12;;;;;;;3.77;3.00;;;14.50;99.90;;;;;;5263322;28;20186;-49
2023/01/01 08:27:43;;;;;;;5.03;3.63;;;14.40;99.90;;;;;;5270978;28;20204;-53
2023/01/01 08:30:15;;;;;;;5.57;3.13;;;14.50;99.90;;;;;;5266024;28;20186;-49
2023/01/01 08:32:46;;;;;;;4.60;3.70;;;14.60;99.90;;;;;;5269429;28;20185;-48
2023/01/01 08:35:17;;;;;;;5.60;3.40;;;14.50;99.90;;;;;;5266339;28;20446;-48
2023/01/01 08:37:48;;;;;;;4.00;3.50;;;14.50;99.90;;;;;;5268758;28;20213;-50
2023/01/01 08:40:18;;;;;;;6.80;3.83;;;14.60;99.90;;;;;;5268704;28;20535;-50
2023/01/01 08:42:49;;;;;;;4.40;3.50;;;14.60;99.90;;;;;;5271991;28;20178;-47
2023/01/01 08:45:20;;;;;;;5.03;3.50;;;14.60;99.90;;;;;;5261982;28;20180;-49
2023/01/01 08:47:50;;;;;;;4.67;3.50;;;14.60;99.90;;;;;;5243052;28;20202;-52
2023/01/01 08:50:21;;;;;;;4.50;3.33;;;14.60;99.90;;;;;;5257456;28;20198;-49
2023/01/01 08:52:52;;;;;;;8.77;4.00;;;14.80;99.90;;;;;;5261437;28;20264;-49
2023/01/01 08:55:22;;;;;;;6.13;3.00;;;14.80;99.90;;;;;;5262775;28;20192;-48
2023/01/01 08:57:53;;;;;;;7.67;3.97;;;14.80;99.90;;;;;;5262233;28;20221;-49
2023/01/01 09:00:24;;;;;;;4.27;3.50;;;14.80;99.90;;;;;;5258078;28;20198;-50
2023/01/01 09:02:54;;;;;;;6.60;3.80;;;14.90;99.90;;;;;;5271820;28;20174;-49
2023/01/01 09:05:25;;;;;;;5.87;2.70;;;14.80;99.90;;;;;;5264703;28;20185;-49
2023/01/01 09:07:55;;;;;;;8.80;3.90;;;14.80;99.90;;;;;;5266001;28;20614;-49
2023/01/01 09:10:26;;;;;;;9.07;3.77;;;14.80;99.90;;;;;;5266331;28;20314;-49
2023/01/01 09:12:57;;;;;;;5.37;3.60;;;14.70;99.90;;;;;;5266801;28;20548;-48
2023/01/01 09:15:28;;;;;;;3.67;2.83;;;14.80;99.90;;;;;;5268330;28;20181;-49
2023/01/01 09:17:58;;;;;;;6.67;3.43;;;14.80;99.90;;;;;;5264640;28;20241;-49
2023/01/01 09:20:29;;;;;;;5.37;3.77;;;14.80;99.90;;;;;;5263212;28;20173;-51
2023/01/01 09:23:00;;;;;;;3.60;2.87;;;14.80;99.90;;;;;;5265972;28;20175;-48
2023/01/01 09:25:31;;;;;;;4.47;2.97;;;14.80;99.90;;;;;;5263363;28;20956;-50
2023/01/01 09:28:07;;;;;;;4.73;4.33;;;14.90;99.90;;;;;;5257794;28;20217;-51
2023/01/01 09:30:38;;;;;;;5.33;2.77;;;14.80;99.90;;;;;;5262115;28;20428;-53
2023/01/01 09:33:09;;;;;;;6.10;3.33;;;14.90;99.90;;;;;;5264559;28;20434;-47
2023/01/01 09:35:43;;;;;;;5.07;3.20;;;14.80;99.90;;;;;;5276593;28;20493;-49
2023/01/01 09:38:13;;;;;;;4.40;3.00;;;14.90;99.90;;;;;;5262569;28;20655;-49
2023/01/01 09:40:55;;;;;;;3.83;3.00;;;14.90;99.90;;;;;;5246787;28;20442;-50
2023/01/01 09:43:45;;;;;;;5.10;3.57;;;15.00;99.90;;;;;;5246517;28;20193;-49
2023/01/01 09:46:16;;;;;;;4.50;2.90;;;15.00;99.90;;;;;;5258801;28;20448;-48
2023/01/01 09:49:00;;;;;;;7.00;2.73;;;15.20;99.90;;;;;;5265007;28;20531;-50
2023/01/01 09:51:34;;;;;;;4.33;2.80;;;15.30;99.90;;;;;;5255730;28;20569;-49
2023/01/01 09:54:05;;;;;;;3.97;3.03;;;15.50;99.90;;;;;;5260042;28;20956;-54
2023/01/01 09:56:38;;;;;;;3.80;2.70;;;15.40;99.90;;;;;;5251275;28;20452;-51
2023/01/01 09:59:10;;;;;;;7.37;3.33;;;15.50;99.90;;;;;;5262158;28;20586;-50
2023/01/01 10:02:09;;;;;;;3.13;2.83;;;15.60;99.90;;;;;;5260219;28;20435;-49
2023/01/01 10:04:40;;;;;;;3.77;3.37;;;15.60;99.90;;;;;;5261987;28;20506;-51
2023/01/01 10:07:28;;;;;;;5.13;3.00;;;15.60;99.90;;;;;;5255037;28;20483;-48
2023/01/01 10:10:02;;;;;;;3.13;2.90;;;15.60;99.90;;;;;;5254960;28;20186;-52
2023/01/01 10:12:47;;;;;;;8.17;2.93;;;15.70;99.90;;;;;;5260196;28;20423;-50
2023/01/01 10:15:30;;;;;;;6.50;3.03;;;15.70;99.80;;;;;;5253818;28;20436;-50
2023/01/01 10:18:07;;;;;;;4.43;2.53;;;15.90;98.90;;;;;;5260413;28;20564;-50
2023/01/01 10:20:45;;;;;;;9.00;3.30;;;15.90;98.90;;;;;;5259657;28;20514;-54
2023/01/01 10:23:24;;;;;;;3.10;2.80;;;15.90;98.80;;;;;;5260734;28;20519;-49
2023/01/01 10:25:57;;;;;;;5.10;3.10;;;15.90;98.60;;;;;;5263951;28;20439;-49
2023/01/01 10:28:45;;;;;;;3.93;2.47;;;15.80;98.70;;;;;;5260583;28;20448;-53
2023/01/01 10:31:55;;;;;;;5.20;2.73;;;15.80;98.70;;;;;;5256776;28;20832;-48
2023/01/01 10:34:28;;;;;;;8.03;2.80;;;15.80;99.10;;;;;;5200064;28;20550;-49
2023/01/01 10:36:59;;;;;;;5.73;2.90;;;15.90;99.20;;;;;;5249802;28;20513;-50
2023/01/01 10:39:30;;;;;;;4.20;2.23;;;15.80;98.90;;;;;;5258407;28;21744;-53
2023/01/01 10:42:02;;;;;;;6.83;2.97;;;15.90;98.90;;;;;;5257145;28;20526;-50
2023/01/01 10:44:33;;;;;;;6.40;3.10;;;15.90;98.60;;;;;;5262701;28;20186;-50
2023/01/01 10:47:28;;;;;;;3.43;2.60;;;15.80;98.90;;;;;;5258561;28;20519;-50
2023/01/01 10:50:06;;;;;;;2.70;2.40;;;15.80;98.70;;;;;;5256213;28;20787;-50
2023/01/01 10:52:40;;;;;;;4.93;3.30;;;15.70;99.00;;;;;;5256953;28;20507;-50
2023/01/01 10:55:22;;;;;;;3.97;3.13;;;15.80;99.20;;;;;;5259372;28;20511;-49
2023/01/01 10:57:53;;;;;;;3.37;2.90;;;15.80;98.80;;;;;;5259945;28;23403;-50
2023/01/01 11:00:27;;;;;;;6.40;2.43;;;15.70;98.80;;;;;;5256729;28;20459;-51
2023/01/01 11:03:18;;;;;;;5.23;2.47;;;15.80;99.00;;;;;;5254265;28;20432;-55
2023/01/01 11:06:04;;;;;;;3.20;2.60;;;15.70;98.60;;;;;;5251875;28;20436;-50
2023/01/01 11:08:38;;;;;;;13.70;5.07;;;15.80;98.70;;;;;;5259364;28;20459;-49
2023/01/01 11:11:41;;;;;;;7.10;5.10;;;15.80;98.50;;;;;;5255393;28;20432;-49
2023/01/01 11:14:28;;;;;;;6.33;3.10;;;15.90;98.10;;;;;;5249871;28;20496;-51
2023/01/01 11:16:59;;;;;;;7.47;4.30;;;15.90;97.70;;;;;;5241238;28;20464;-51
2023/01/01 11:19:35;;;;;;;10.03;3.93;;;15.90;97.40;;;;;;5256137;28;20455;-51
2023/01/01 11:22:06;;;;;;;2.47;2.27;;;15.80;97.50;;;;;;5259310;28;20430;-52
2023/01/01 11:24:37;;;;;;;2.27;2.17;;;15.90;97.20;;;;;;5254929;28;20446;-50
2023/01/01 11:27:23;;;;;;;2.17;2.07;;;16.00;96.60;;;;;;5251490;28;20435;-51
2023/01/01 11:30:18;;;;;;;5.23;2.77;;;15.90;96.80;;;;;;5250759;28;20450;-54
2023/01/01 11:32:57;;;;;;;1.93;1.70;;;16.00;95.80;;;;;;5272506;28;20440;-49
2023/01/01 11:35:31;;;;;;;4.07;3.50;;;15.90;95.60;;;;;;5275519;28;20577;-50
2023/01/01 11:38:02;;;;;;;4.63;2.50;;;15.90;95.90;;;;;;5260248;28;20506;-55
2023/01/01 11:40:43;;;;;;;5.90;2.23;;;15.80;96.00;;;;;;5255739;28;20522;-49
2023/01/01 11:43:27;;;;;;;4.00;2.13;;;15.90;96.10;;;;;;5259545;28;20444;-52
2023/01/01 11:45:57;;;;;;;6.10;2.70;;;16.00;95.80;;;;;;5257673;28;20769;-49
2023/01/01 11:48:33;;;;;;;6.20;4.63;;;16.10;95.70;;;;;;5271859;28;20500;-53
2023/01/01 11:51:07;;;;;;;2.60;2.50;;;16.10;95.50;;;;;;5263059;28;20178;-49
2023/01/01 11:53:42;;;;;;;2.53;2.10;;;16.10;95.40;;;;;;5262773;28;20449;-54
2023/01/01 11:56:22;;;;;;;2.47;2.20;;;16.10;96.10;;;;;;5251378;28;20841;-50
2023/01/01 11:58:54;;;;;;;3.90;2.47;;;16.10;96.00;;;;;;5259143;28;20472;-50
2023/01/01 12:01:50;;;;;;;2.40;2.20;;;16.20;95.90;;;;;;5258519;28;21174;-50
2023/01/01 12:04:48;;;;;;;4.20;2.00;;;16.20;95.60;;;;;;5250725;28;20450;-50
2023/01/01 12:07:33;;;;;;;4.40;2.43;;;16.20;95.40;;;;;;5267341;28;21043;-49
2023/01/01 12:10:30;;;;;;;4.30;2.20;;;16.10;95.60;;;;;;5255505;28;20439;-54
2023/01/01 12:13:06;;;;;;;2.83;2.23;;;16.20;95.60;;;;;;5272580;27;20447;-50
2023/01/01 12:15:51;;;;;;;2.17;2.00;;;16.20;95.60;;;;;;5270224;28;20443;-51
2023/01/01 12:18:40;;;;;;;4.20;2.33;;;16.00;95.90;;;;;;5266346;28;20458;-50
2023/01/01 12:21:11;;;;;;;2.30;2.00;;;16.00;96.40;;;;;;5257790;28;21954;-50
2023/01/01 12:23:42;;;;;;;2.10;1.90;;;15.90;96.70;;;;;;5263219;28;20443;-50
2023/01/01 12:26:54;;;;;;;5.83;3.00;;;15.90;97.00;;;;;;5265757;28;20181;-49
2023/01/01 12:29:38;;;;;;;8.73;2.80;;;16.00;97.10;;;;;;5233698;28;20213;-50
2023/01/01 12:32:18;;;;;;;3.60;2.60;;;15.90;97.20;;;;;;5276399;28;20524;-52
2023/01/01 12:35:27;;;;;;;3.20;2.37;;;15.90;97.20;;;;;;5275224;28;20475;-50
2023/01/01 12:38:30;;;;;;;4.43;2.70;;;15.90;97.30;;;;;;5275559;28;20471;-49
2023/01/01 12:41:36;;;;;;;3.90;2.27;;;15.90;97.40;;;;;;5270730;28;20506;-51
2023/01/01 12:44:14;;;;;;;2.63;1.87;;;15.90;97.40;;;;;;5266264;28;20446;-49
2023/01/01 12:47:07;;;;;;;5.00;2.40;;;15.80;97.70;;;;;;5272821;28;20511;-49
2023/01/01 12:50:03;;;;;;;8.33;2.50;;;15.80;98.10;;;;;;5257979;28;20789;-50
2023/01/01 12:53:02;;;;;;;6.03;2.30;;;15.70;98.20;;;;;;5278847;28;20816;-49
2023/01/01 12:55:48;;;;;;;3.10;2.10;;;15.60;98.60;;;;;;5270197;28;20431;-50
2023/01/01 12:58:31;;;;;;;2.53;2.07;;;15.60;99.10;;;;;;5268604;28;20592;-49
2023/01/01 13:01:12;;;;;;;20.43;2.13;;;15.50;99.50;;;;;;5276333;28;20428;-50
2023/01/01 13:03:52;;;;;;;7.20;2.80;;;15.60;99.80;;;;;;5256049;28;20951;-50
2023/01/01 13:06:42;;;;;;;7.03;2.93;;;15.50;99.90;;;;;;5265603;28;20916;-50
2023/01/01 13:09:17;;;;;;;3.40;1.83;;;15.50;99.90;;;;;;5262952;28;20955;-51
2023/01/01 13:11:52;;;;;;;3.43;2.43;;;15.50;99.90;;;;;;5274907;28;20935;-49
2023/01/01 13:14:25;;;;;;;12.10;2.97;;;15.40;99.90;;;;;;5269405;28;20419;-51
2023/01/01 13:16:56;;;;;;;4.63;2.43;;;15.40;99.90;;;;;;5273248;28;20479;-48
2023/01/01 13:19:34;;;;;;;3.70;2.30;;;15.30;99.90;;;;;;5274600;28;20964;-49
2023/01/01 13:22:26;;;;;;;3.77;2.33;;;15.40;99.90;;;;;;5261611;28;20481;-48
2023/01/01 13:25:19;;;;;;;2.20;2.07;;;15.20;99.90;;;;;;5266882;28;20428;-52
2023/01/01 13:27:55;;;;;;;3.80;2.43;;;15.30;99.90;;;;;;5267399;28;20858;-49
2023/01/01 13:30:40;;;;;;;4.83;3.10;;;15.30;99.90;;;;;;5254769;28;20435;-53
2023/01/01 13:33:25;;;;;;;3.90;2.63;;;15.30;99.90;;;;;;5255647;28;20437;-50